sensor_id;sensor_type;location;lat;lon;timestamp;pressure;altitude;pressure_sealevel;temperature;humidity
15914;BME280;8055;51.930;8.840;2023-10-13T00:01:55;75143.97;;;-145.72;100.00
15914;BME280;8055;51.930;8.840;2023-10-13T00:04:21;75146.03;;;-145.72;100.00
15914;BME280;8055;51.930;8.840;2023-10-13T00:06:56;75146.03;;;-145.72;100.00
15914;BME280;8055;51.930;8.840;2023-10-13T00:09:22;75141.91;;;-145.72;100.00
15914;BME280;8055;51.930;8.840;2023-10-13T00:11:54;75143.97;;;-145.72;100.00
15914;BME280;8055;51.930;8.840;2023-10-13T00:14:21;75121.22;;;-145.72;100.00
15914;BME280;8055;51.930;8.840;2023-10-13T00:16:47;75137.75;;;-145.72;100.00
15914;BME280;8055;51.930;8.840;2023-10-13T00:19:37;75129.47;;;-145.72;100.00
15914;BME280;8055;51.930;8.840;2023-10-13T00:22:08;75123.28;;;-145.72;100.00
15914;BME280;8055;51.930;8.840;2023-10-13T00:24:35;75108.78;;;-145.72;100.00
15914;BME280;8055;51.930;8.840;2023-10-13T00:27:17;75119.13;;;-145.72;100.00
15914;BME280;8055;51.930;8.840;2023-10-13T00:29:58;75112.94;;;-145.72;100.00
15914;BME280;8055;51.930;8.840;2023-10-13T00:32:49;75106.72;;;-145.72;100.00
15914;BME280;8055;51.930;8.840;2023-10-13T00:35:21;75104.66;;;-145.72;100.00
15914;BME280;8055;51.930;8.840;2023-10-13T00:38:03;75117.06;;;-145.72;100.00
15914;BME280;8055;51.930;8.840;2023-10-13T00:40:30;75106.72;;;-145.72;100.00
15914;BME280;8055;51.930;8.840;2023-10-13T00:42:57;75102.59;;;-145.72;100.00
15914;BME280;8055;51.930;8.840;2023-10-13T00:45:56;75108.78;;;-145.72;100.00
15914;BME280;8055;51.930;8.840;2023-10-13T00:48:29;75100.53;;;-145.72;100.00
15914;BME280;8055;51.930;8.840;2023-10-13T00:51:01;75096.38;;;-145.72;100.00
15914;BME280;8055;51.930;8.840;2023-10-13T00:53:33;75090.19;;;-145.72;100.00
15914;BME280;8055;51.930;8.840;2023-10-13T00:56:03;75092.25;;;-145.72;100.00
15914;BME280;8055;51.930;8.840;2023-10-13T00:58:36;75086.03;;;-145.72;100.00
15914;BME280;8055;51.930;8.840;2023-10-13T01:01:05;75088.09;;;-145.72;100.00
15914;BME280;8055;51.930;8.840;2023-10-13T01:03:54;75083.97;;;-145.72;100.00
15914;BME280;8055;51.930;8.840;2023-10-13T01:06:28;75071.56;;;-145.72;100.00
15914;BME280;8055;51.930;8.840;2023-10-13T01:09:02;75071.56;;;-145.72;100.00
15914;BME280;8055;51.930;8.840;2023-10-13T01:11:39;75073.63;;;-145.72;100.00
15914;BME280;8055;51.930;8.840;2023-10-13T01:14:05;75079.81;;;-145.72;100.00
15914;BME280;8055;51.930;8.840;2023-10-13T01:16:30;75075.69;;;-145.72;100.00
15914;BME280;8055;51.930;8.840;2023-10-13T01:18:56;75063.28;;;-145.72;100.00
15914;BME280;8055;51.930;8.840;2023-10-13T01:21:25;75067.41;;;-145.72;100.00
15914;BME280;8055;51.930;8.840;2023-10-13T01:23:53;75055.00;;;-145.72;100.00
15914;BME280;8055;51.930;8.840;2023-10-13T01:26:18;75067.41;;;-145.72;100.00
15914;BME280;8055;51.930;8.840;2023-10-13T01:28:50;75059.13;;;-145.72;100.00
15914;BME280;8055;51.930;8.840;2023-10-13T01:31:15;75052.94;;;-145.72;100.00
15914;BME280;8055;51.930;8.840;2023-10-13T01:33:53;75050.88;;;-145.72;100.00
15914;BME280;8055;51.930;8.840;2023-10-13T01:36:25;75052.94;;;-145.72;100.00
15914;BME280;8055;51.930;8.840;2023-10-13T01:38:51;75042.59;;;-145.72;100.00
15914;BME280;8055;51.930;8.840;2023-10-13T01:41:18;75046.72;;;-145.72;100.00
15914;BME280;8055;51.930;8.840;2023-10-13T01:43:44;75042.59;;;-145.72;100.00
15914;BME280;8055;51.930;8.840;2023-10-13T01:46:10;75036.38;;;-145.72;100.00
15914;BME280;8055;51.930;8.840;2023-10-13T01:48:39;75042.59;;;-145.72;100.00
15914;BME280;8055;51.930;8.840;2023-10-13T01:51:06;75026.03;;;-145.72;100.00
15914;BME280;8055;51.930;8.840;2023-10-13T01:53:36;75017.75;;;-145.72;100.00
15914;BME280;8055;51.930;8.840;2023-10-13T01:56:02;75021.91;;;-145.72;100.00
15914;BME280;8055;51.930;8.840;2023-10-13T01:58:35;75021.91;;;-145.72;100.00
15914;BME280;8055;51.930;8.840;2023-10-13T02:01:01;74997.06;;;-145.72;100.00
15914;BME280;8055;51.930;8.840;2023-10-13T02:03:27;75001.22;;;-145.72;100.00
15914;BME280;8055;51.930;8.840;2023-10-13T02:05:55;75001.22;;;-145.72;100.00
15914;BME280;8055;51.930;8.840;2023-10-13T02:08:23;74997.06;;;-145.72;100.00
15914;BME280;8055;51.930;8.840;2023-10-13T02:10:58;74995.00;;;-145.72;100.00
15914;BME280;8055;51.930;8.840;2023-10-13T02:13:26;75007.41;;;-145.72;100.00
15914;BME280;8055;51.930;8.840;2023-10-13T02:15:56;75003.28;;;-145.72;100.00
15914;BME280;8055;51.930;8.840;2023-10-13T02:18:23;75017.75;;;-145.72;100.00
15914;BME280;8055;51.930;8.840;2023-10-13T02:20:53;75009.50;;;-145.72;100.00
15914;BME280;8055;51.930;8.840;2023-10-13T02:23:25;75015.69;;;-145.72;100.00
15914;BME280;8055;51.930;8.840;2023-10-13T02:25:54;75001.22;;;-145.72;100.00
15914;BME280;8055;51.930;8.840;2023-10-13T02:28:28;75015.69;;;-145.72;100.00
15914;BME280;8055;51.930;8.840;2023-10-13T02:30:56;75013.63;;;-145.72;100.00
15914;BME280;8055;51.930;8.840;2023-10-13T02:33:23;75011.56;;;-145.72;100.00
15914;BME280;8055;51.930;8.840;2023-10-13T02:35:58;75005.34;;;-145.72;100.00
15914;BME280;8055;51.930;8.840;2023-10-13T02:38:25;75005.34;;;-145.72;100.00
15914;BME280;8055;51.930;8.840;2023-10-13T02:40:58;75003.28;;;-145.72;100.00
15914;BME280;8055;51.930;8.840;2023-10-13T02:43:32;75001.22;;;-145.72;100.00
15914;BME280;8055;51.930;8.840;2023-10-13T02:45:58;74992.94;;;-145.72;100.00
15914;BME280;8055;51.930;8.840;2023-10-13T02:48:28;74976.38;;;-145.72;100.00
15914;BME280;8055;51.930;8.840;2023-10-13T02:50:59;74976.38;;;-145.72;100.00
15914;BME280;8055;51.930;8.840;2023-10-13T02:53:30;74974.31;;;-145.72;100.00
15914;BME280;8055;51.930;8.840;2023-10-13T02:55:56;74972.25;;;-145.72;100.00
15914;BME280;8055;51.930;8.840;2023-10-13T02:58:29;74963.97;;;-145.72;100.00
15914;BME280;8055;51.930;8.840;2023-10-13T03:01:05;74968.13;;;-145.72;100.00
15914;BME280;8055;51.930;8.840;2023-10-13T03:03:35;74976.38;;;-145.72;100.00
15914;BME280;8055;51.930;8.840;2023-10-13T03:06:00;74968.13;;;-145.72;100.00
15914;BME280;8055;51.930;8.840;2023-10-13T03:08:26;74961.91;;;-145.72;100.00
15914;BME280;8055;51.930;8.840;2023-10-13T03:10:52;74963.97;;;-145.72;100.00
15914;BME280;8055;51.930;8.840;2023-10-13T03:13:19;74961.91;;;-145.72;100.00
15914;BME280;8055;51.930;8.840;2023-10-13T03:15:45;74968.13;;;-145.72;100.00
15914;BME280;8055;51.930;8.840;2023-10-13T03:18:13;74957.78;;;-145.72;100.00
15914;BME280;8055;51.930;8.840;2023-10-13T03:20:43;74963.97;;;-145.72;100.00
15914;BME280;8055;51.930;8.840;2023-10-13T03:23:08;74963.97;;;-145.72;100.00
15914;BME280;8055;51.930;8.840;2023-10-13T03:25:34;74963.97;;;-145.72;100.00
15914;BME280;8055;51.930;8.840;2023-10-13T03:28:08;74959.84;;;-145.72;100.00
15914;BME280;8055;51.930;8.840;2023-10-13T03:30:37;74957.78;;;-145.72;100.00
15914;BME280;8055;51.930;8.840;2023-10-13T03:33:05;74955.69;;;-145.72;100.00
15914;BME280;8055;51.930;8.840;2023-10-13T03:35:53;74955.69;;;-145.72;100.00
15914;BME280;8055;51.930;8.840;2023-10-13T03:38:19;74937.06;;;-145.72;100.00
15914;BME280;8055;51.930;8.840;2023-10-13T03:40:50;74945.34;;;-145.72;100.00
15914;BME280;8055;51.930;8.840;2023-10-13T03:43:31;74947.44;;;-145.72;100.00
15914;BME280;8055;51.930;8.840;2023-10-13T03:45:58;74932.94;;;-145.72;100.00
15914;BME280;8055;51.930;8.840;2023-10-13T03:48:26;74932.94;;;-145.72;100.00
15914;BME280;8055;51.930;8.840;2023-10-13T03:53:39;74916.38;;;-145.72;100.00
15914;BME280;8055;51.930;8.840;2023-10-13T03:56:28;74914.31;;;-145.72;100.00
15914;BME280;8055;51.930;8.840;2023-10-13T03:59:04;74922.59;;;-145.72;100.00
15914;BME280;8055;51.930;8.840;2023-10-13T04:01:50;74924.66;;;-145.72;100.00
15914;BME280;8055;51.930;8.840;2023-10-13T04:04:27;74922.59;;;-145.72;100.00
15914;BME280;8055;51.930;8.840;2023-10-13T04:07:03;74899.84;;;-145.72;100.00
15914;BME280;8055;51.930;8.840;2023-10-13T04:09:36;74901.91;;;-145.72;100.00
15914;BME280;8055;51.930;8.840;2023-10-13T04:12:06;74901.91;;;-145.72;100.00
15914;BME280;8055;51.930;8.840;2023-10-13T04:14:40;74893.63;;;-145.72;100.00
15914;BME280;8055;51.930;8.840;2023-10-13T04:17:11;74897.78;;;-145.72;100.00
15914;BME280;8055;51.930;8.840;2023-10-13T04:19:40;74901.91;;;-145.72;100.00
15914;BME280;8055;51.930;8.840;2023-10-13T04:22:25;74893.63;;;-145.72;100.00
15914;BME280;8055;51.930;8.840;2023-10-13T04:25:26;74885.34;;;-145.72;100.00
15914;BME280;8055;51.930;8.840;2023-10-13T04:28:17;74883.28;;;-145.72;100.00
15914;BME280;8055;51.930;8.840;2023-10-13T04:30:47;74885.34;;;-145.72;100.00
15914;BME280;8055;51.930;8.840;2023-10-13T04:33:19;74885.34;;;-145.72;100.00
15914;BME280;8055;51.930;8.840;2023-10-13T04:36:26;74879.16;;;-145.72;100.00
15914;BME280;8055;51.930;8.840;2023-10-13T04:38:59;74883.28;;;-145.72;100.00
15914;BME280;8055;51.930;8.840;2023-10-13T04:41:35;74877.09;;;-145.72;100.00
15914;BME280;8055;51.930;8.840;2023-10-13T04:44:15;74872.94;;;-145.72;100.00
15914;BME280;8055;51.930;8.840;2023-10-13T04:47:00;74877.09;;;-145.72;100.00
15914;BME280;8055;51.930;8.840;2023-10-13T04:49:30;74879.16;;;-145.72;100.00
15914;BME280;8055;51.930;8.840;2023-10-13T04:52:09;74868.81;;;-145.72;100.00
15914;BME280;8055;51.930;8.840;2023-10-13T04:54:42;74854.31;;;-145.72;100.00
15914;BME280;8055;51.930;8.840;2023-10-13T04:57:22;74854.31;;;-145.72;100.00
15914;BME280;8055;51.930;8.840;2023-10-13T05:00:20;74856.41;;;-145.72;100.00
15914;BME280;8055;51.930;8.840;2023-10-13T05:02:46;74856.41;;;-145.72;100.00
15914;BME280;8055;51.930;8.840;2023-10-13T05:05:30;74850.19;;;-145.72;100.00
15914;BME280;8055;51.930;8.840;2023-10-13T05:08:14;74846.06;;;-145.72;100.00
15914;BME280;8055;51.930;8.840;2023-10-13T05:11:03;74852.25;;;-145.72;100.00
15914;BME280;8055;51.930;8.840;2023-10-13T05:14:00;74862.59;;;-145.72;100.00
15914;BME280;8055;51.930;8.840;2023-10-13T05:16:44;74864.66;;;-145.72;100.00
15914;BME280;8055;51.930;8.840;2023-10-13T05:19:28;74856.41;;;-145.72;100.00
15914;BME280;8055;51.930;8.840;2023-10-13T05:22:12;74839.84;;;-145.72;100.00
15914;BME280;8055;51.930;8.840;2023-10-13T05:24:56;74843.97;;;-145.72;100.00
15914;BME280;8055;51.930;8.840;2023-10-13T05:27:40;74850.19;;;-145.72;100.00
15914;BME280;8055;51.930;8.840;2023-10-13T05:30:23;74856.41;;;-145.72;100.00
15914;BME280;8055;51.930;8.840;2023-10-13T05:33:07;74860.53;;;-145.72;100.00
15914;BME280;8055;51.930;8.840;2023-10-13T05:35:58;74841.91;;;-145.72;100.00
15914;BME280;8055;51.930;8.840;2023-10-13T05:38:42;74841.91;;;-145.72;100.00
15914;BME280;8055;51.930;8.840;2023-10-13T05:41:26;74848.13;;;-145.72;100.00
15914;BME280;8055;51.930;8.840;2023-10-13T05:44:10;74831.56;;;-145.72;100.00
15914;BME280;8055;51.930;8.840;2023-10-13T05:46:54;74823.28;;;-145.72;100.00
15914;BME280;8055;51.930;8.840;2023-10-13T05:49:54;74827.44;;;-145.72;100.00
15914;BME280;8055;51.930;8.840;2023-10-13T05:52:30;74831.56;;;-145.72;100.00
15914;BME280;8055;51.930;8.840;2023-10-13T05:55:13;74810.88;;;-145.72;100.00
15914;BME280;8055;51.930;8.840;2023-10-13T05:57:57;74810.88;;;-145.72;100.00
15914;BME280;8055;51.930;8.840;2023-10-13T06:00:41;74810.88;;;-145.72;100.00
15914;BME280;8055;51.930;8.840;2023-10-13T06:03:25;74796.41;;;-145.72;100.00
15914;BME280;8055;51.930;8.840;2023-10-13T06:06:08;74796.41;;;-145.72;100.00
15914;BME280;8055;51.930;8.840;2023-10-13T06:08:57;74798.47;;;-145.72;100.00
15914;BME280;8055;51.930;8.840;2023-10-13T06:11:40;74794.34;;;-145.72;100.00
15914;BME280;8055;51.930;8.840;2023-10-13T06:14:24;74802.63;;;-145.72;100.00
15914;BME280;8055;51.930;8.840;2023-10-13T06:17:08;74806.75;;;-145.72;100.00
15914;BME280;8055;51.930;8.840;2023-10-13T06:19:56;74810.88;;;-145.72;100.00
15914;BME280;8055;51.930;8.840;2023-10-13T06:22:39;74808.81;;;-145.72;100.00
15914;BME280;8055;51.930;8.840;2023-10-13T06:25:23;74784.00;;;-145.72;100.00
15914;BME280;8055;51.930;8.840;2023-10-13T06:28:07;74784.00;;;-145.72;100.00
15914;BME280;8055;51.930;8.840;2023-10-13T06:30:57;74763.31;;;-145.72;100.00
15914;BME280;8055;51.930;8.840;2023-10-13T06:33:23;74763.31;;;-145.72;100.00
15914;BME280;8055;51.930;8.840;2023-10-13T06:35:55;74759.16;;;-145.72;100.00
15914;BME280;8055;51.930;8.840;2023-10-13T06:38:22;74769.50;;;-145.72;100.00
15914;BME280;8055;51.930;8.840;2023-10-13T06:40:48;74744.69;;;-145.72;100.00
15914;BME280;8055;51.930;8.840;2023-10-13T06:43:16;74773.66;;;-145.72;100.00
15914;BME280;8055;51.930;8.840;2023-10-13T06:45:45;74761.22;;;-145.72;100.00
15914;BME280;8055;51.930;8.840;2023-10-13T06:48:26;74752.97;;;-145.72;100.00
15914;BME280;8055;51.930;8.840;2023-10-13T06:50:51;74755.03;;;-145.72;100.00
15914;BME280;8055;51.930;8.840;2023-10-13T06:53:21;74746.75;;;-145.72;100.00
15914;BME280;8055;51.930;8.840;2023-10-13T06:55:47;74744.69;;;-145.72;100.00
15914;BME280;8055;51.930;8.840;2023-10-13T06:58:14;74736.41;;;-145.72;100.00
15914;BME280;8055;51.930;8.840;2023-10-13T07:00:40;74719.88;;;-145.72;100.00
15914;BME280;8055;51.930;8.840;2023-10-13T07:03:06;74732.28;;;-145.72;100.00
15914;BME280;8055;51.930;8.840;2023-10-13T07:05:38;74740.56;;;-145.72;100.00
15914;BME280;8055;51.930;8.840;2023-10-13T07:08:08;74732.28;;;-145.72;100.00
15914;BME280;8055;51.930;8.840;2023-10-13T07:10:35;74740.56;;;-145.72;100.00
15914;BME280;8055;51.930;8.840;2023-10-13T07:13:19;74748.81;;;-145.72;100.00
15914;BME280;8055;51.930;8.840;2023-10-13T07:15:45;74740.56;;;-145.72;100.00
15914;BME280;8055;51.930;8.840;2023-10-13T07:18:12;74736.41;;;-145.72;100.00
15914;BME280;8055;51.930;8.840;2023-10-13T07:20:42;74738.47;;;-145.72;100.00
15914;BME280;8055;51.930;8.840;2023-10-13T07:23:13;74732.28;;;-145.72;100.00
15914;BME280;8055;51.930;8.840;2023-10-13T07:25:52;74734.34;;;-145.72;100.00
15914;BME280;8055;51.930;8.840;2023-10-13T07:28:20;74732.28;;;-145.72;100.00
15914;BME280;8055;51.930;8.840;2023-10-13T07:30:46;74715.72;;;-145.72;100.00
15914;BME280;8055;51.930;8.840;2023-10-13T07:33:34;74713.66;;;-145.72;100.00
15914;BME280;8055;51.930;8.840;2023-10-13T07:36:04;74707.44;;;-145.72;100.00
15914;BME280;8055;51.930;8.840;2023-10-13T07:38:42;74697.09;;;-145.72;100.00
15914;BME280;8055;51.930;8.840;2023-10-13T07:41:08;74678.50;;;-145.72;100.00
15914;BME280;8055;51.930;8.840;2023-10-13T07:43:35;74692.97;;;-145.72;100.00
15914;BME280;8055;51.930;8.840;2023-10-13T07:46:02;74688.84;;;-145.72;100.00
15914;BME280;8055;51.930;8.840;2023-10-13T07:48:34;74686.75;;;-145.72;100.00
15914;BME280;8055;51.930;8.840;2023-10-13T07:51:05;74684.69;;;-145.72;100.00
15914;BME280;8055;51.930;8.840;2023-10-13T07:53:35;74670.22;;;-145.72;100.00
15914;BME280;8055;51.930;8.840;2023-10-13T07:56:03;74655.72;;;-145.72;100.00
15914;BME280;8055;51.930;8.840;2023-10-13T07:58:31;74649.53;;;-145.72;100.00
15914;BME280;8055;51.930;8.840;2023-10-13T08:00:59;74647.47;;;-145.72;100.00
15914;BME280;8055;51.930;8.840;2023-10-13T08:03:34;74645.38;;;-145.72;100.00
15914;BME280;8055;51.930;8.840;2023-10-13T08:06:02;74647.47;;;-145.72;100.00
15914;BME280;8055;51.930;8.840;2023-10-13T08:08:32;74628.84;;;-145.72;100.00
15914;BME280;8055;51.930;8.840;2023-10-13T08:11:07;74616.44;;;-145.72;100.00
15914;BME280;8055;51.930;8.840;2023-10-13T08:13:39;74612.28;;;-145.72;100.00
15914;BME280;8055;51.930;8.840;2023-10-13T08:16:12;74616.44;;;-145.72;100.00
15914;BME280;8055;51.930;8.840;2023-10-13T08:18:47;74595.75;;;-145.72;100.00
15914;BME280;8055;51.930;8.840;2023-10-13T08:21:15;74589.53;;;-145.72;100.00
15914;BME280;8055;51.930;8.840;2023-10-13T08:23:43;74601.94;;;-145.72;100.00
15914;BME280;8055;51.930;8.840;2023-10-13T08:26:27;74587.47;;;-145.72;100.00
15914;BME280;8055;51.930;8.840;2023-10-13T08:29:03;74562.66;;;-145.72;100.00
15914;BME280;8055;51.930;8.840;2023-10-13T08:31:47;74560.56;;;-145.72;100.00
15914;BME280;8055;51.930;8.840;2023-10-13T08:34:31;74546.09;;;-145.72;100.00
15914;BME280;8055;51.930;8.840;2023-10-13T08:37:26;74527.47;;;-145.72;100.00
15914;BME280;8055;51.930;8.840;2023-10-13T08:39:56;74531.63;;;-145.72;100.00
15914;BME280;8055;51.930;8.840;2023-10-13T08:42:35;74510.94;;;-145.72;100.00
15914;BME280;8055;51.930;8.840;2023-10-13T08:45:23;74506.78;;;-145.72;100.00
15914;BME280;8055;51.930;8.840;2023-10-13T08:47:50;74504.72;;;-145.72;100.00
15914;BME280;8055;51.930;8.840;2023-10-13T08:50:22;74479.91;;;-145.72;100.00
15914;BME280;8055;51.930;8.840;2023-10-13T08:53:07;74475.75;;;-145.72;100.00
15914;BME280;8055;51.930;8.840;2023-10-13T08:55:54;74455.06;;;-145.72;100.00
15914;BME280;8055;51.930;8.840;2023-10-13T08:58:27;74459.22;;;-145.72;100.00
15914;BME280;8055;51.930;8.840;2023-10-13T09:01:13;74428.19;;;-145.72;100.00
15914;BME280;8055;51.930;8.840;2023-10-13T09:03:41;74421.97;;;-145.72;100.00
15914;BME280;8055;51.930;8.840;2023-10-13T09:06:13;74409.56;;;-145.72;100.00
15914;BME280;8055;51.930;8.840;2023-10-13T09:08:45;74413.72;;;-145.72;100.00
15914;BME280;8055;51.930;8.840;2023-10-13T09:11:34;74401.28;;;-145.72;100.00
15914;BME280;8055;51.930;8.840;2023-10-13T09:14:14;74388.88;;;-145.72;100.00
15914;BME280;8055;51.930;8.840;2023-10-13T09:17:03;74382.69;;;-145.72;100.00
15914;BME280;8055;51.930;8.840;2023-10-13T09:19:54;74380.63;;;-145.72;100.00
15914;BME280;8055;51.930;8.840;2023-10-13T09:22:24;74380.63;;;-145.72;100.00
15914;BME280;8055;51.930;8.840;2023-10-13T09:24:58;74370.28;;;-145.72;100.00
15914;BME280;8055;51.930;8.840;2023-10-13T09:27:28;74351.66;;;-145.72;100.00
15914;BME280;8055;51.930;8.840;2023-10-13T09:29:58;74343.38;;;-145.72;100.00
15914;BME280;8055;51.930;8.840;2023-10-13T09:33:01;74355.78;;;-145.72;100.00
15914;BME280;8055;51.930;8.840;2023-10-13T09:35:28;74355.78;;;-145.72;100.00
15914;BME280;8055;51.930;8.840;2023-10-13T09:37:54;74351.66;;;-145.72;100.00
15914;BME280;8055;51.930;8.840;2023-10-13T09:40:23;74328.91;;;-145.72;100.00
15914;BME280;8055;51.930;8.840;2023-10-13T09:43:18;74304.06;;;-145.72;100.00
15914;BME280;8055;51.930;8.840;2023-10-13T09:45:47;74277.19;;;-145.72;100.00
15914;BME280;8055;51.930;8.840;2023-10-13T09:51:03;74266.84;;;-145.72;100.00
15914;BME280;8055;51.930;8.840;2023-10-13T09:53:31;74260.63;;;-145.72;100.00
15914;BME280;8055;51.930;8.840;2023-10-13T09:56:09;74227.53;;;-145.72;100.00
15914;BME280;8055;51.930;8.840;2023-10-13T10:01:29;74239.94;;;-145.72;100.00
15914;BME280;8055;51.930;8.840;2023-10-13T10:04:09;74235.81;;;-145.72;100.00
15914;BME280;8055;51.930;8.840;2023-10-13T10:06:38;74227.53;;;-145.72;100.00
15914;BME280;8055;51.930;8.840;2023-10-13T10:09:10;74202.72;;;-145.72;100.00
15914;BME280;8055;51.930;8.840;2023-10-13T10:17:22;74192.38;;;-145.72;100.00
15914;BME280;8055;51.930;8.840;2023-10-13T10:19:52;74171.69;;;-145.72;100.00
15914;BME280;8055;51.930;8.840;2023-10-13T10:22:30;74161.34;;;-145.72;100.00
15914;BME280;8055;51.930;8.840;2023-10-13T10:25:04;74140.66;;;-145.72;100.00
15914;BME280;8055;51.930;8.840;2023-10-13T10:27:32;74124.13;;;-145.72;97.65
15914;BME280;8055;51.930;8.840;2023-10-13T10:29:58;74111.72;;;-145.72;97.63
15914;BME280;8055;51.930;8.840;2023-10-13T10:32:37;74097.22;;;-145.72;96.62
15914;BME280;8055;51.930;8.840;2023-10-13T10:35:07;74105.50;;;-145.72;95.21
15914;BME280;8055;51.930;8.840;2023-10-13T10:37:34;74093.09;;;-145.72;97.42
15914;BME280;8055;51.930;8.840;2023-10-13T10:40:01;74080.69;;;-145.72;93.76
15914;BME280;8055;51.930;8.840;2023-10-13T10:42:30;74066.22;;;-145.72;90.90
15914;BME280;8055;51.930;8.840;2023-10-13T10:44:56;74045.53;;;-145.72;92.21
15914;BME280;8055;51.930;8.840;2023-10-13T10:47:23;74028.97;;;-145.72;89.39
15914;BME280;8055;51.930;8.840;2023-10-13T10:50:02;74000.03;;;-145.72;89.36
15914;BME280;8055;51.930;8.840;2023-10-13T10:52:45;73995.88;;;-145.72;82.32
15914;BME280;8055;51.930;8.840;2023-10-13T10:55:12;74004.16;;;-145.72;84.03
15914;BME280;8055;51.930;8.840;2023-10-13T10:57:42;73979.34;;;-145.72;85.49
15914;BME280;8055;51.930;8.840;2023-10-13T11:00:23;73966.94;;;-145.72;87.92
15914;BME280;8055;51.930;8.840;2023-10-13T11:02:55;73962.78;;;-145.72;83.08
15914;BME280;8055;51.930;8.840;2023-10-13T11:05:22;73960.72;;;-145.72;83.21
15914;BME280;8055;51.930;8.840;2023-10-13T11:07:50;73954.53;;;-145.72;85.43
15914;BME280;8055;51.930;8.840;2023-10-13T11:10:16;73927.63;;;-145.72;80.45
15914;BME280;8055;51.930;8.840;2023-10-13T11:12:58;73909.03;;;-145.72;80.55
15914;BME280;8055;51.930;8.840;2023-10-13T11:15:47;73890.41;;;-145.72;78.95
15914;BME280;8055;51.930;8.840;2023-10-13T11:18:14;73894.53;;;-145.72;79.02
15914;BME280;8055;51.930;8.840;2023-10-13T11:20:48;73884.19;;;-145.72;79.16
15914;BME280;8055;51.930;8.840;2023-10-13T11:23:20;73863.53;;;-145.72;77.32
15914;BME280;8055;51.930;8.840;2023-10-13T11:25:57;73842.84;;;-145.72;75.85
15914;BME280;8055;51.930;8.840;2023-10-13T11:28:24;73834.56;;;-145.72;78.19
15914;BME280;8055;51.930;8.840;2023-10-13T11:30:53;73826.28;;;-145.72;73.69
15914;BME280;8055;51.930;8.840;2023-10-13T11:33:22;73809.75;;;-145.72;76.24
15914;BME280;8055;51.930;8.840;2023-10-13T11:35:51;73801.47;;;-145.72;76.00
15914;BME280;8055;51.930;8.840;2023-10-13T11:38:28;73805.59;;;-145.72;75.02
15914;BME280;8055;51.930;8.840;2023-10-13T11:40:58;73824.22;;;-145.72;75.35
15914;BME280;8055;51.930;8.840;2023-10-13T11:46:39;73838.69;;;-145.72;79.11
15914;BME280;8055;51.930;8.840;2023-10-13T11:49:21;73838.69;;;-145.72;76.73
15914;BME280;8055;51.930;8.840;2023-10-13T11:51:52;73840.78;;;-145.72;76.11
15914;BME280;8055;51.930;8.840;2023-10-13T11:54:27;73859.38;;;-145.72;75.03
15914;BME280;8055;51.930;8.840;2023-10-13T11:56:52;73853.19;;;-145.72;72.99
15914;BME280;8055;51.930;8.840;2023-10-13T11:59:18;73857.31;;;-145.72;74.13
15914;BME280;8055;51.930;8.840;2023-10-13T12:01:45;73849.03;;;-145.72;72.22
15914;BME280;8055;51.930;8.840;2023-10-13T12:04:29;73873.84;;;-145.72;73.19
15914;BME280;8055;51.930;8.840;2023-10-13T12:07:08;73849.03;;;-145.72;73.15
15914;BME280;8055;51.930;8.840;2023-10-13T12:09:50;73834.56;;;-145.72;74.21
15914;BME280;8055;51.930;8.840;2023-10-13T12:12:25;73822.16;;;-145.72;74.44
15914;BME280;8055;51.930;8.840;2023-10-13T12:14:51;73832.50;;;-145.72;72.81
15914;BME280;8055;51.930;8.840;2023-10-13T12:17:29;73834.56;;;-145.72;74.84
15914;BME280;8055;51.930;8.840;2023-10-13T12:20:03;73826.28;;;-145.72;77.39
15914;BME280;8055;51.930;8.840;2023-10-13T12:22:36;73809.75;;;-145.72;73.74
15914;BME280;8055;51.930;8.840;2023-10-13T12:25:05;73770.44;;;-145.72;71.17
15914;BME280;8055;51.930;8.840;2023-10-13T12:27:50;73764.25;;;-145.72;74.11
15914;BME280;8055;51.930;8.840;2023-10-13T12:30:21;73741.50;;;-145.72;71.54
15914;BME280;8055;51.930;8.840;2023-10-13T12:33:24;73714.59;;;-145.72;72.44
15914;BME280;8055;51.930;8.840;2023-10-13T12:36:00;73693.94;;;-145.72;72.31
15914;BME280;8055;51.930;8.840;2023-10-13T12:38:32;73704.25;;;-145.72;72.78
15914;BME280;8055;51.930;8.840;2023-10-13T12:41:20;73683.59;;;-145.72;72.96
15914;BME280;8055;51.930;8.840;2023-10-13T12:44:05;73675.31;;;-145.72;71.17
15914;BME280;8055;51.930;8.840;2023-10-13T12:46:49;73654.63;;;-145.72;72.35
15914;BME280;8055;51.930;8.840;2023-10-13T12:49:47;73687.72;;;-145.72;71.96
15914;BME280;8055;51.930;8.840;2023-10-13T12:52:13;73677.38;;;-145.72;72.18
15914;BME280;8055;51.930;8.840;2023-10-13T12:54:45;73658.75;;;-145.72;68.53
15914;BME280;8055;51.930;8.840;2023-10-13T12:57:23;73652.56;;;-145.72;71.38
15914;BME280;8055;51.930;8.840;2023-10-13T12:59:49;73662.91;;;-145.72;69.43
15914;BME280;8055;51.930;8.840;2023-10-13T13:02:20;73673.25;;;-145.72;68.22
15914;BME280;8055;51.930;8.840;2023-10-13T13:04:45;73660.84;;;-145.72;71.26
15914;BME280;8055;51.930;8.840;2023-10-13T13:07:13;73648.44;;;-145.72;71.34
15914;BME280;8055;51.930;8.840;2023-10-13T13:09:42;73631.88;;;-145.72;69.02
15914;BME280;8055;51.930;8.840;2023-10-13T13:12:07;73640.16;;;-145.72;70.63
15914;BME280;8055;51.930;8.840;2023-10-13T13:14:33;73633.94;;;-145.72;66.18
15914;BME280;8055;51.930;8.840;2023-10-13T13:17:01;73619.47;;;-145.72;67.99
15914;BME280;8055;51.930;8.840;2023-10-13T13:19:34;73619.47;;;-145.72;66.80
15914;BME280;8055;51.930;8.840;2023-10-13T13:22:07;73629.81;;;-145.72;68.05
15914;BME280;8055;51.930;8.840;2023-10-13T13:24:42;73636.00;;;-145.72;66.77
15914;BME280;8055;51.930;8.840;2023-10-13T13:27:12;73654.63;;;-145.72;67.17
15914;BME280;8055;51.930;8.840;2023-10-13T13:29:47;73650.50;;;-145.72;70.24
15914;BME280;8055;51.930;8.840;2023-10-13T13:32:13;73658.75;;;-145.72;69.53
15914;BME280;8055;51.930;8.840;2023-10-13T13:34:44;73652.56;;;-145.72;67.30
15914;BME280;8055;51.930;8.840;2023-10-13T13:37:10;73654.63;;;-145.72;67.03